createdAt,value
2022-12-01T00:01:14.029Z,71.30
2022-12-01T00:03:41.336Z,71.30
2022-12-01T00:06:15.853Z,71.30
2022-12-01T00:09:02.846Z,71.30
2022-12-01T00:11:30.131Z,71.30
2022-12-01T00:13:57.017Z,71.10
2022-12-01T00:16:23.913Z,71.10
2022-12-01T00:18:52.536Z,71.10
2022-12-01T00:21:21.775Z,70.80
2022-12-01T00:23:51.642Z,71.10
2022-12-01T00:26:19.667Z,71.10
2022-12-01T00:28:57.332Z,71.10
2022-12-01T00:31:24.674Z,71.50
2022-12-01T00:33:51.910Z,71.30
2022-12-01T00:36:18.796Z,71.30
2022-12-01T00:38:46.538Z,71.30
2022-12-01T00:41:13.660Z,71.30
2022-12-01T00:43:40.984Z,71.50
2022-12-01T00:46:08.044Z,71.40
2022-12-01T00:48:34.985Z,71.50
2022-12-01T00:51:04.257Z,71.60
2022-12-01T00:53:31.177Z,71.60
2022-12-01T00:55:58.008Z,71.70
2022-12-01T00:58:25.422Z,71.50
2022-12-01T01:01:00.435Z,71.40
2022-12-01T01:03:28.778Z,71.30
2022-12-01T01:05:55.655Z,71.40
2022-12-01T01:08:22.646Z,71.40
2022-12-01T01:10:49.805Z,71.50
2022-12-01T01:13:17.026Z,71.40
2022-12-01T01:15:44.053Z,71.40
2022-12-01T01:18:11.888Z,71.30
2022-12-01T01:20:38.751Z,71.50
2022-12-01T01:23:05.588Z,71.50
2022-12-01T01:25:33.467Z,71.40
2022-12-01T01:28:00.491Z,71.40
2022-12-01T01:30:27.410Z,71.70
2022-12-01T01:32:54.366Z,71.80
2022-12-01T01:35:22.691Z,72.00
2022-12-01T01:37:50.916Z,71.90
2022-12-01T01:40:18.235Z,71.70
2022-12-01T01:42:45.116Z,71.70
2022-12-01T01:45:32.297Z,71.90
2022-12-01T01:48:00.388Z,71.80
2022-12-01T01:50:28.919Z,71.80
2022-12-01T01:53:00.805Z,72.00
2022-12-01T01:55:30.097Z,72.30
2022-12-01T01:57:57.457Z,72.40
2022-12-01T02:00:24.525Z,72.30
2022-12-01T02:02:54.154Z,72.30
2022-12-01T02:05:23.285Z,72.20
2022-12-01T02:07:55.858Z,72.30
2022-12-01T02:10:37.953Z,72.10
2022-12-01T02:13:13.904Z,72.30
2022-12-01T02:16:08.142Z,72.40
2022-12-01T02:18:59.596Z,72.40
2022-12-01T02:22:01.778Z,72.50
2022-12-01T02:24:51.873Z,72.60
2022-12-01T02:27:18.657Z,72.50
2022-12-01T02:30:22.169Z,72.40
2022-12-01T02:33:04.592Z,72.10
2022-12-01T02:35:41.100Z,72.10
2022-12-01T02:38:26.753Z,72.00
2022-12-01T02:41:04.623Z,71.90
2022-12-01T02:44:08.728Z,71.80
2022-12-01T02:46:55.590Z,72.20
2022-12-01T02:49:35.428Z,72.10
2022-12-01T02:52:05.774Z,72.00
2022-12-01T02:54:33.747Z,72.10
2022-12-01T02:57:00.594Z,72.10
2022-12-01T02:59:27.503Z,72.20
2022-12-01T03:02:06.231Z,72.10
2022-12-01T03:05:03.280Z,72.20
2022-12-01T03:07:51.389Z,71.90
2022-12-01T03:10:24.080Z,72.20
2022-12-01T03:12:58.321Z,72.30
2022-12-01T03:15:36.394Z,72.30
2022-12-01T03:18:26.045Z,72.30
2022-12-01T03:21:08.165Z,72.30
2022-12-01T03:23:41.465Z,72.30
2022-12-01T03:26:12.369Z,72.30
2022-12-01T03:29:12.867Z,72.40
2022-12-01T03:31:54.536Z,72.50
2022-12-01T03:34:46.512Z,72.30
2022-12-01T03:37:21.771Z,72.30
2022-12-01T03:39:55.927Z,72.30
2022-12-01T03:42:34.360Z,72.30
2022-12-01T03:45:08.053Z,72.10
2022-12-01T03:47:40.363Z,72.20
2022-12-01T03:50:13.224Z,72.40
2022-12-01T03:53:07.108Z,72.10
2022-12-01T03:55:40.894Z,71.90
2022-12-01T03:58:10.749Z,72.10
2022-12-01T04:00:37.966Z,72.20
2022-12-01T04:03:05.296Z,72.20
2022-12-01T04:05:34.566Z,72.40
2022-12-01T04:08:02.138Z,72.50
2022-12-01T04:10:29.281Z,72.20
2022-12-01T04:12:59.574Z,71.90
2022-12-01T04:15:27.655Z,72.00
2022-12-01T04:17:54.751Z,72.10
2022-12-01T04:20:21.832Z,72.40
2022-12-01T04:22:49.181Z,72.10
2022-12-01T04:25:16.210Z,72.10
2022-12-01T04:27:43.131Z,71.90
2022-12-01T04:30:11.088Z,71.80
2022-12-01T04:32:42.773Z,71.80
2022-12-01T04:35:11.538Z,71.80
2022-12-01T04:37:39.566Z,71.80
2022-12-01T04:40:07.580Z,72.50
2022-12-01T04:42:34.468Z,71.60
2022-12-01T04:45:01.360Z,71.60
2022-12-01T04:47:28.243Z,71.60
2022-12-01T04:49:55.084Z,71.50
2022-12-01T04:52:21.911Z,71.50
2022-12-01T04:54:48.742Z,71.60
2022-12-01T04:57:15.588Z,71.70
2022-12-01T04:59:42.442Z,72.10
2022-12-01T05:02:09.312Z,72.10
2022-12-01T05:04:38.781Z,71.90
2022-12-01T05:07:06.148Z,71.80
2022-12-01T05:09:33.099Z,71.90
2022-12-01T05:11:59.929Z,71.90
2022-12-01T05:14:26.873Z,72.10
2022-12-01T05:16:55.069Z,72.20
2022-12-01T05:19:40.318Z,72.30
2022-12-01T05:22:07.115Z,72.10
2022-12-01T05:24:33.986Z,72.20
2022-12-01T05:27:00.876Z,72.30
2022-12-01T05:29:27.719Z,72.20
2022-12-01T05:31:54.674Z,72.10
2022-12-01T05:34:21.655Z,71.80
2022-12-01T05:36:48.502Z,71.60
2022-12-01T05:39:15.523Z,71.50
2022-12-01T05:41:42.371Z,71.60
2022-12-01T05:44:09.218Z,71.60
2022-12-01T05:46:36.095Z,71.60
2022-12-01T05:49:02.937Z,71.30
2022-12-01T05:51:29.743Z,71.40
2022-12-01T05:53:58.682Z,71.20
2022-12-01T05:56:25.638Z,71.50
2022-12-01T05:58:52.485Z,72.00
2022-12-01T06:01:19.397Z,71.00
2022-12-01T06:03:46.273Z,71.10
2022-12-01T06:06:13.251Z,71.30
2022-12-01T06:08:40.155Z,71.30
2022-12-01T06:11:07.034Z,70.90
2022-12-01T06:13:33.973Z,70.80
2022-12-01T06:16:03.198Z,70.70
2022-12-01T06:18:38.041Z,71.50
2022-12-01T06:21:06.279Z,70.50
2022-12-01T06:23:33.695Z,70.70
2022-12-01T06:26:00.572Z,70.80
2022-12-01T06:28:27.512Z,70.70
2022-12-01T06:30:59.305Z,70.80
2022-12-01T06:33:29.697Z,70.80
2022-12-01T06:36:05.780Z,71.30
2022-12-01T06:38:34.867Z,71.10
2022-12-01T06:41:02.017Z,70.70
2022-12-01T06:43:29.043Z,71.30
2022-12-01T06:46:01.170Z,70.00
2022-12-01T06:48:29.587Z,69.80
2022-12-01T06:51:00.297Z,69.60
2022-12-01T06:53:28.561Z,69.40
2022-12-01T06:56:04.279Z,70.00
2022-12-01T06:58:31.869Z,69.30
2022-12-01T07:00:59.292Z,69.30
2022-12-01T07:03:26.776Z,69.40
2022-12-01T07:06:01.526Z,69.70
2022-12-01T07:08:30.219Z,69.40
2022-12-01T07:11:08.714Z,69.50
2022-12-01T07:13:36.197Z,69.80
2022-12-01T07:16:04.137Z,70.10
2022-12-01T07:18:32.237Z,70.40
2022-12-01T07:21:01.057Z,70.80
2022-12-01T07:23:28.265Z,71.00
2022-12-01T07:26:10.529Z,71.00
2022-12-01T07:28:37.537Z,71.30
2022-12-01T07:31:06.547Z,71.40
2022-12-01T07:33:33.722Z,71.40
2022-12-01T07:36:01.159Z,71.40
2022-12-01T07:38:29.774Z,71.10
2022-12-01T07:41:02.402Z,71.00
2022-12-01T07:43:31.405Z,70.90
2022-12-01T07:46:05.480Z,71.40
2022-12-01T07:48:32.889Z,71.10
2022-12-01T07:50:59.858Z,71.20
2022-12-01T07:53:26.863Z,71.20
2022-12-01T07:55:53.793Z,71.30
2022-12-01T07:58:20.656Z,71.30
2022-12-01T08:00:47.562Z,71.30
2022-12-01T08:03:15.001Z,71.50
2022-12-01T08:05:41.994Z,72.00
2022-12-01T08:08:09.013Z,72.40
2022-12-01T08:10:36.463Z,72.50
2022-12-01T08:13:03.963Z,72.50
2022-12-01T08:15:30.929Z,72.70
2022-12-01T08:18:02.627Z,72.90
2022-12-01T08:20:29.541Z,73.30
2022-12-01T08:22:56.418Z,73.30
2022-12-01T08:25:23.294Z,73.40
2022-12-01T08:27:50.183Z,73.80
2022-12-01T08:30:17.223Z,73.80
2022-12-01T08:32:44.383Z,73.90
2022-12-01T08:35:11.222Z,73.90
2022-12-01T08:37:38.085Z,73.80
2022-12-01T08:40:05.714Z,73.80
2022-12-01T08:42:32.628Z,73.80
2022-12-01T08:44:59.625Z,73.50
2022-12-01T08:47:29.028Z,73.40
2022-12-01T08:49:57.041Z,73.50
2022-12-01T08:52:23.876Z,73.70
2022-12-01T08:54:50.701Z,73.80
2022-12-01T08:57:18.067Z,73.80
2022-12-01T08:59:44.927Z,74.10
2022-12-01T09:02:15.922Z,74.20
2022-12-01T09:04:42.889Z,74.10
2022-12-01T09:07:10.752Z,74.00
2022-12-01T09:09:37.855Z,74.00
2022-12-01T09:12:04.952Z,73.90
2022-12-01T09:14:31.873Z,74.10
2022-12-01T09:16:58.728Z,74.10
2022-12-01T09:19:25.605Z,74.20
2022-12-01T09:21:52.936Z,74.00
2022-12-01T09:24:19.978Z,74.10
2022-12-01T09:26:47.211Z,74.00
2022-12-01T09:29:17.349Z,73.90
2022-12-01T09:31:44.485Z,73.90
2022-12-01T09:34:15.791Z,73.80
2022-12-01T09:36:42.825Z,73.60
2022-12-01T09:39:13.424Z,73.40
2022-12-01T09:41:45.126Z,73.30
2022-12-01T09:44:20.679Z,73.60
2022-12-01T09:46:57.514Z,73.60
2022-12-01T09:49:45.309Z,73.20
2022-12-01T09:52:16.466Z,73.10
2022-12-01T09:54:43.455Z,72.80
2022-12-01T09:57:30.123Z,72.50
2022-12-01T09:59:59.022Z,72.60
2022-12-01T10:02:37.467Z,72.10
2022-12-01T10:05:12.072Z,72.20
2022-12-01T10:07:57.281Z,72.30
2022-12-01T10:10:34.823Z,72.20
2022-12-01T10:13:01.925Z,72.30
2022-12-01T10:15:54.300Z,72.70
2022-12-01T10:18:39.352Z,72.50
2022-12-01T10:21:14.671Z,72.40
2022-12-01T10:24:13.242Z,72.30
2022-12-01T10:27:07.805Z,72.40
2022-12-01T10:29:43.812Z,71.80
2022-12-01T10:32:21.574Z,72.10
2022-12-01T10:34:48.821Z,71.90
2022-12-01T10:37:24.747Z,71.30
2022-12-01T10:39:55.082Z,71.60
2022-12-01T10:42:35.108Z,71.40
2022-12-01T10:45:07.553Z,71.20
2022-12-01T10:47:35.873Z,71.50
2022-12-01T10:50:04.623Z,71.30
2022-12-01T10:52:41.188Z,71.20
2022-12-01T10:55:23.154Z,71.40
2022-12-01T10:57:51.099Z,71.90
2022-12-01T11:00:59.561Z,71.80
2022-12-01T11:03:27.263Z,71.60
2022-12-01T11:05:58.100Z,70.90
2022-12-01T11:08:54.311Z,70.80
2022-12-01T11:11:28.980Z,71.20
2022-12-01T11:13:58.946Z,70.80
2022-12-01T11:16:42.398Z,70.80
2022-12-01T11:19:27.803Z,70.90
2022-12-01T11:22:00.196Z,70.50
2022-12-01T11:24:55.496Z,70.20
2022-12-01T11:27:29.304Z,70.10
2022-12-01T11:30:00.089Z,69.80
2022-12-01T11:32:33.373Z,70.10
2022-12-01T11:35:14.844Z,70.10
2022-12-01T11:38:27.234Z,70.20
2022-12-01T11:41:04.356Z,69.90
2022-12-01T11:43:34.899Z,69.70
2022-12-01T11:46:05.663Z,69.80
2022-12-01T11:48:37.350Z,69.70
2022-12-01T11:51:24.342Z,69.70
2022-12-01T11:54:19.310Z,69.40
2022-12-01T11:56:52.810Z,69.70
2022-12-01T11:59:31.507Z,69.30
2022-12-01T12:02:16.986Z,69.00
2022-12-01T12:05:05.423Z,68.80
2022-12-01T12:07:53.788Z,68.80
2022-12-01T12:10:45.296Z,68.70
2022-12-01T12:13:20.849Z,68.70
2022-12-01T12:16:18.957Z,68.90
2022-12-01T12:19:04.627Z,68.90
2022-12-01T12:21:36.451Z,69.10
2022-12-01T12:24:23.619Z,69.00
2022-12-01T12:27:17.923Z,69.10
2022-12-01T12:30:02.071Z,68.60
2022-12-01T12:32:28.832Z,67.90
2022-12-01T12:35:04.557Z,67.50
2022-12-01T12:37:49.733Z,67.50
2022-12-01T12:40:19.717Z,67.50
2022-12-01T12:42:55.687Z,67.50
2022-12-01T12:45:34.120Z,67.80
2022-12-01T12:48:00.898Z,67.50
2022-12-01T12:50:34.572Z,67.80
2022-12-01T12:53:06.653Z,67.60
2022-12-01T12:55:43.870Z,67.60
2022-12-01T12:58:16.757Z,67.40
2022-12-01T13:00:50.431Z,67.30
2022-12-01T13:03:34.061Z,67.20
2022-12-01T13:06:14.838Z,67.00
2022-12-01T13:08:50.742Z,67.30
2022-12-01T13:11:29.029Z,67.20
2022-12-01T13:14:13.209Z,66.80
2022-12-01T13:16:44.121Z,66.60
2022-12-01T13:19:27.237Z,66.30
2022-12-01T13:21:55.762Z,66.50
2022-12-01T13:24:29.694Z,66.40
2022-12-01T13:27:19.877Z,66.50
2022-12-01T13:29:50.678Z,66.50
2022-12-01T13:32:38.544Z,66.40
2022-12-01T13:35:20.754Z,66.40
2022-12-01T13:37:48.345Z,66.30
2022-12-01T13:40:24.927Z,66.40
2022-12-01T13:43:10.249Z,66.40
2022-12-01T13:45:40.015Z,66.50
2022-12-01T13:48:45.766Z,66.90
2022-12-01T13:51:12.661Z,66.70
2022-12-01T13:53:52.655Z,66.80
2022-12-01T13:56:45.801Z,66.90
2022-12-01T13:59:57.753Z,66.90
2022-12-01T14:02:26.926Z,66.80
2022-12-01T14:04:53.963Z,66.50
2022-12-01T14:07:28.399Z,66.10
2022-12-01T14:10:06.285Z,65.90
2022-12-01T14:12:37.799Z,66.10
2022-12-01T14:15:22.755Z,66.10
2022-12-01T14:18:04.810Z,66.40
2022-12-01T14:20:37.313Z,66.70
2022-12-01T14:23:33.215Z,66.80
2022-12-01T14:26:04.243Z,66.80
2022-12-01T14:28:56.057Z,66.70
2022-12-01T14:31:24.874Z,66.40
2022-12-01T14:34:01.959Z,66.50
2022-12-01T14:36:41.951Z,66.40
2022-12-01T14:39:19.885Z,66.60
2022-12-01T14:41:51.624Z,66.70
2022-12-01T14:44:30.853Z,66.80
2022-12-01T14:47:22.687Z,66.70
2022-12-01T14:50:13.790Z,66.80
2022-12-01T14:52:45.133Z,66.70
2022-12-01T14:55:20.627Z,66.60
2022-12-01T14:57:52.632Z,66.70
2022-12-01T15:00:25.100Z,66.80
2022-12-01T15:02:56.099Z,67.00
2022-12-01T15:05:27.306Z,67.00
2022-12-01T15:08:18.637Z,67.00
2022-12-01T15:10:53.151Z,67.00
2022-12-01T15:13:53.924Z,66.80
2022-12-01T15:16:23.262Z,66.90
2022-12-01T15:18:50.611Z,66.90
2022-12-01T15:21:25.050Z,66.90
2022-12-01T15:24:19.679Z,67.00
2022-12-01T15:26:51.701Z,66.80
2022-12-01T15:29:19.311Z,67.10
2022-12-01T15:32:01.986Z,66.90
2022-12-01T15:34:38.137Z,67.10
2022-12-01T15:37:11.558Z,67.00
2022-12-01T15:39:52.534Z,66.80
2022-12-01T15:42:33.421Z,66.80
2022-12-01T15:45:15.614Z,67.00
2022-12-01T15:47:43.543Z,66.90
2022-12-01T15:50:46.211Z,66.80
2022-12-01T15:53:29.569Z,67.00
2022-12-01T15:55:59.286Z,66.50
2022-12-01T15:58:30.315Z,66.60
2022-12-01T16:01:13.222Z,66.70
2022-12-01T16:03:54.137Z,66.60
2022-12-01T16:06:27.931Z,66.70
2022-12-01T16:09:00.090Z,66.50
2022-12-01T16:11:27.583Z,66.40
2022-12-01T16:14:08.066Z,66.30
2022-12-01T16:16:46.928Z,66.20
2022-12-01T16:19:16.901Z,66.50
2022-12-01T16:21:49.654Z,66.90
2022-12-01T16:24:38.493Z,66.90
2022-12-01T16:27:18.490Z,67.10
2022-12-01T16:30:02.773Z,67.20
2022-12-01T16:32:42.477Z,67.20
2022-12-01T16:35:21.373Z,66.90
2022-12-01T16:37:48.422Z,67.30
2022-12-01T16:40:16.804Z,66.10
2022-12-01T16:42:44.028Z,66.00
2022-12-01T16:45:14.737Z,66.20
2022-12-01T16:47:43.109Z,66.10
2022-12-01T16:50:18.066Z,66.20
2022-12-01T16:52:45.910Z,66.50
2022-12-01T16:55:43.905Z,66.40
2022-12-01T16:58:10.883Z,66.30
2022-12-01T17:00:37.801Z,66.50
2022-12-01T17:03:05.811Z,66.50
2022-12-01T17:05:33.455Z,66.50
2022-12-01T17:08:00.568Z,66.60
2022-12-01T17:10:27.462Z,66.70
2022-12-01T17:12:54.346Z,66.90
2022-12-01T17:15:21.219Z,67.20
2022-12-01T17:17:48.188Z,67.20
2022-12-01T17:20:15.436Z,67.40
2022-12-01T17:22:42.578Z,67.30
2022-12-01T17:25:09.868Z,67.30
2022-12-01T17:27:37.718Z,67.60
2022-12-01T17:30:09.078Z,68.00
2022-12-01T17:32:36.275Z,68.40
2022-12-01T17:35:03.472Z,68.40
2022-12-01T17:37:30.388Z,68.50
2022-12-01T17:39:57.366Z,68.70
2022-12-01T17:42:24.381Z,68.70
2022-12-01T17:44:51.482Z,68.60
2022-12-01T17:47:18.601Z,68.60
2022-12-01T17:49:45.487Z,68.40
2022-12-01T17:52:12.522Z,68.30
2022-12-01T17:54:39.423Z,68.50
2022-12-01T17:57:07.519Z,68.50
2022-12-01T17:59:35.548Z,68.20
2022-12-01T18:02:03.731Z,68.00
2022-12-01T18:04:31.843Z,67.60
2022-12-01T18:06:59.535Z,67.80
2022-12-01T18:09:26.867Z,67.80
2022-12-01T18:11:56.239Z,68.00
2022-12-01T18:14:24.304Z,68.30
2022-12-01T18:16:51.862Z,68.50
2022-12-01T18:19:19.508Z,68.60
2022-12-01T18:21:46.440Z,68.80
2022-12-01T18:24:13.566Z,69.40
2022-12-01T18:26:41.354Z,69.40
2022-12-01T18:29:14.445Z,69.80
2022-12-01T18:31:41.879Z,69.70
2022-12-01T18:34:11.158Z,69.50
2022-12-01T18:36:39.962Z,69.20
2022-12-01T18:39:09.026Z,69.00
2022-12-01T18:41:36.803Z,69.30
2022-12-01T18:44:04.442Z,69.20
2022-12-01T18:46:31.687Z,69.20
2022-12-01T18:49:02.962Z,69.00
2022-12-01T18:51:32.229Z,68.90
2022-12-01T18:54:03.583Z,68.80
2022-12-01T18:56:31.099Z,68.80
2022-12-01T18:58:59.858Z,68.70
2022-12-01T19:01:32.245Z,68.60
2022-12-01T19:04:00.481Z,68.90
2022-12-01T19:06:28.871Z,69.10
2022-12-01T19:08:59.996Z,69.30
2022-12-01T19:11:27.933Z,69.40
2022-12-01T19:13:56.819Z,69.90
2022-12-01T19:16:24.393Z,70.00
2022-12-01T19:18:52.851Z,70.20
2022-12-01T19:21:20.669Z,70.40
2022-12-01T19:23:48.458Z,70.60
2022-12-01T19:26:21.797Z,70.60
2022-12-01T19:28:49.307Z,70.70
2022-12-01T19:31:18.734Z,70.50
2022-12-01T19:33:46.580Z,70.80
2022-12-01T19:36:25.035Z,71.00
2022-12-01T19:38:52.976Z,71.10
2022-12-01T19:41:20.835Z,71.00
2022-12-01T19:43:48.141Z,71.10
2022-12-01T19:46:17.835Z,71.10
2022-12-01T19:48:45.118Z,72.00
2022-12-01T19:51:20.209Z,71.30
2022-12-01T19:53:47.926Z,70.30
2022-12-01T19:56:15.051Z,69.30
2022-12-01T19:58:41.961Z,68.90
2022-12-01T20:01:11.926Z,68.50
2022-12-01T20:03:40.661Z,68.30
2022-12-01T20:06:14.444Z,68.30
2022-12-01T20:08:41.877Z,68.30
2022-12-01T20:11:09.193Z,68.90
2022-12-01T20:13:39.980Z,69.40
2022-12-01T20:16:08.605Z,69.80
2022-12-01T20:18:36.319Z,69.90
2022-12-01T20:21:04.078Z,70.00
2022-12-01T20:23:31.001Z,70.10
2022-12-01T20:26:02.856Z,70.00
2022-12-01T20:28:30.583Z,70.10
2022-12-01T20:30:58.353Z,70.30
2022-12-01T20:33:26.166Z,70.50
2022-12-01T20:35:53.068Z,70.80
2022-12-01T20:38:25.828Z,70.80
2022-12-01T20:40:54.446Z,70.90
2022-12-01T20:43:21.690Z,71.20
2022-12-01T20:45:51.496Z,71.50
2022-12-01T20:48:18.561Z,71.60
2022-12-01T20:50:45.562Z,71.60
2022-12-01T20:53:12.664Z,71.60
2022-12-01T20:55:39.870Z,71.90
2022-12-01T20:58:10.499Z,72.10
2022-12-01T21:00:39.993Z,72.20
2022-12-01T21:03:07.173Z,72.30
2022-12-01T21:05:34.051Z,72.50
2022-12-01T21:08:01.944Z,72.70
2022-12-01T21:10:29.192Z,72.80
2022-12-01T21:13:21.640Z,72.80
2022-12-01T21:16:00.224Z,72.70
2022-12-01T21:18:38.319Z,72.70
2022-12-01T21:21:21.191Z,72.70
2022-12-01T21:23:54.883Z,72.70
2022-12-01T21:26:21.789Z,72.90
2022-12-01T21:28:48.672Z,73.00
2022-12-01T21:31:16.073Z,72.90
2022-12-01T21:33:43.397Z,73.00
2022-12-01T21:36:22.227Z,72.60
2022-12-01T21:38:53.374Z,72.40
2022-12-01T21:41:29.924Z,72.50
2022-12-01T21:44:02.663Z,72.40
2022-12-01T21:46:30.035Z,72.30
2022-12-01T21:48:57.101Z,72.20
2022-12-01T21:51:25.668Z,72.20
2022-12-01T21:53:55.965Z,72.20
2022-12-01T21:56:26.919Z,72.10
2022-12-01T21:58:58.957Z,72.00
2022-12-01T22:01:34.195Z,71.70
2022-12-01T22:04:06.058Z,71.80
2022-12-01T22:06:39.571Z,71.70
2022-12-01T22:09:31.710Z,71.60
2022-12-01T22:12:10.524Z,71.40
2022-12-01T22:14:37.443Z,72.40
2022-12-01T22:17:07.547Z,71.60
2022-12-01T22:19:39.655Z,71.80
2022-12-01T22:22:09.461Z,71.90
2022-12-01T22:24:40.981Z,72.00
2022-12-01T22:27:29.814Z,71.90
2022-12-01T22:30:19.535Z,71.90
2022-12-01T22:33:03.832Z,72.20
2022-12-01T22:35:43.259Z,72.20
2022-12-01T22:38:39.850Z,72.20
2022-12-01T22:41:12.110Z,72.30
2022-12-01T22:43:48.289Z,72.20
2022-12-01T22:46:25.817Z,72.20
2022-12-01T22:49:20.188Z,72.10
2022-12-01T22:51:50.031Z,72.10
2022-12-01T22:54:16.840Z,72.10
2022-12-01T22:56:48.518Z,72.10
2022-12-01T22:59:15.364Z,72.80
2022-12-01T23:02:01.146Z,71.80
2022-12-01T23:04:38.493Z,71.90
2022-12-01T23:07:23.915Z,72.10
2022-12-01T23:09:50.867Z,72.10
2022-12-01T23:12:27.215Z,72.10
2022-12-01T23:15:16.022Z,72.10
2022-12-01T23:17:42.903Z,72.00
2022-12-01T23:20:28.670Z,71.90
2022-12-01T23:22:57.239Z,72.00
2022-12-01T23:25:25.767Z,72.00
2022-12-01T23:27:54.641Z,72.00
2022-12-01T23:30:22.510Z,72.30
2022-12-01T23:33:19.289Z,72.20
2022-12-01T23:35:55.928Z,72.10
2022-12-01T23:38:28.495Z,72.20
2022-12-01T23:40:59.346Z,72.40
2022-12-01T23:43:33.162Z,72.30
2022-12-01T23:46:05.940Z,72.40
2022-12-01T23:48:37.842Z,72.40
2022-12-01T23:51:10.940Z,72.50
2022-12-01T23:53:40.292Z,72.50
2022-12-01T23:56:12.483Z,72.50
2022-12-01T23:58:39.347Z,72.40
